createdAt,value
2018-12-05T00:00:30.981Z,78.75
2018-12-05T00:01:11.534Z,78.85
2018-12-05T00:01:52.102Z,79.14
2018-12-05T00:02:32.653Z,79.42
2018-12-05T00:03:13.261Z,79.14
2018-12-05T00:03:53.842Z,78.85
2018-12-05T00:04:34.391Z,78.75
2018-12-05T00:05:14.948Z,78.85
2018-12-05T00:05:55.520Z,79.04
2018-12-05T00:06:36.070Z,78.75
2018-12-05T00:07:16.643Z,78.95
2018-12-05T00:07:57.190Z,78.66
2018-12-05T00:08:37.746Z,78.75
2018-12-05T00:09:18.337Z,78.85
2018-12-05T00:09:58.906Z,78.85
2018-12-05T00:10:39.479Z,78.19
2018-12-05T00:11:20.034Z,78.95
2018-12-05T00:12:00.618Z,78.95
2018-12-05T00:12:41.177Z,78.66
2018-12-05T00:13:21.770Z,79.04
2018-12-05T00:14:02.295Z,79.14
2018-12-05T00:14:42.873Z,78.66
2018-12-05T00:15:23.427Z,78.95
2018-12-05T00:16:03.991Z,79.04
2018-12-05T00:16:44.531Z,78.95
2018-12-05T00:17:25.129Z,79.71
2018-12-05T00:18:05.711Z,79.42
2018-12-05T00:18:46.267Z,78.85
2018-12-05T00:19:26.829Z,78.95
2018-12-05T00:20:07.396Z,79.04
2018-12-05T00:23:21.251Z,79.61
2018-12-05T00:24:01.823Z,79.33
2018-12-05T00:24:42.385Z,79.14
2018-12-05T00:25:22.950Z,79.42
2018-12-05T00:26:03.523Z,79.42
2018-12-05T00:26:44.114Z,79.61
2018-12-05T00:27:25.362Z,79.33
2018-12-05T00:28:06.336Z,79.42
2018-12-05T00:28:46.894Z,79.23
2018-12-05T00:29:27.466Z,79.61
2018-12-05T00:30:08.029Z,79.33
2018-12-05T00:30:48.583Z,79.71
2018-12-05T00:31:29.143Z,79.23
2018-12-05T00:32:09.753Z,79.42
2018-12-05T00:32:50.322Z,79.42
2018-12-05T00:33:30.878Z,79.99
2018-12-05T00:34:11.435Z,79.42
2018-12-05T00:34:51.995Z,79.61
2018-12-05T00:35:32.568Z,79.52
2018-12-05T00:36:13.134Z,79.9
2018-12-05T00:36:53.681Z,79.99
2018-12-05T00:37:34.269Z,79.99
2018-12-05T00:38:14.846Z,79.99
2018-12-05T00:38:55.403Z,79.99
2018-12-05T00:39:35.982Z,80.46
2018-12-05T00:40:16.513Z,80.18
2018-12-05T00:40:57.064Z,80.08
2018-12-05T00:41:37.639Z,80.75
2018-12-05T00:42:18.182Z,80.37
2018-12-05T00:42:58.736Z,79.99
2018-12-05T00:43:39.414Z,80.27
2018-12-05T00:44:19.959Z,80.27
2018-12-05T00:45:00.521Z,80.46
2018-12-05T00:45:41.080Z,80.56
2018-12-05T00:46:21.631Z,79.99
2018-12-05T00:47:02.243Z,80.18
2018-12-05T00:47:42.798Z,80.18
2018-12-05T00:48:23.365Z,79.8
2018-12-05T00:49:03.925Z,80.08
2018-12-05T00:49:44.490Z,79.99
2018-12-05T00:50:25.041Z,79.61
2018-12-05T00:51:05.584Z,79.99
2018-12-05T00:51:46.135Z,80.37
2018-12-05T00:52:26.711Z,80.27
2018-12-05T00:53:07.247Z,80.27
2018-12-05T00:53:47.813Z,80.37
2018-12-05T00:54:28.359Z,80.18
2018-12-05T00:55:08.915Z,80.08
2018-12-05T00:55:49.520Z,80.75
2018-12-05T00:56:30.060Z,80.65
2018-12-05T00:57:10.609Z,80.37
2018-12-05T00:57:51.164Z,80.37
2018-12-05T00:58:31.740Z,80.65
2018-12-05T00:59:12.327Z,80.56
2018-12-05T00:59:52.876Z,80.75
2018-12-05T01:00:33.667Z,80.65
2018-12-05T01:01:14.228Z,80.08
2018-12-05T01:01:54.792Z,80.18
2018-12-05T01:02:35.360Z,80.08
2018-12-05T01:03:15.902Z,79.99
2018-12-05T01:03:56.456Z,80.37
2018-12-05T01:04:37.008Z,79.9
2018-12-05T01:05:17.565Z,80.18
2018-12-05T01:05:58.106Z,80.75
2018-12-05T01:06:38.668Z,80.75
2018-12-05T01:07:19.226Z,80.46
2018-12-05T01:07:59.845Z,80.18
2018-12-05T01:08:40.445Z,80.27
2018-12-05T01:09:20.978Z,80.27
2018-12-05T01:10:01.554Z,80.27
2018-12-05T01:10:42.094Z,80.27
2018-12-05T01:11:22.670Z,80.75
2018-12-05T01:12:03.228Z,80.27
2018-12-05T01:12:43.782Z,79.99
2018-12-05T01:13:24.338Z,79.99
2018-12-05T01:14:04.958Z,79.8
2018-12-05T01:14:45.512Z,80.27
2018-12-05T01:15:26.069Z,80.08
2018-12-05T01:16:06.623Z,80.56
2018-12-05T01:16:47.185Z,80.75
2018-12-05T01:17:27.740Z,80.75
2018-12-05T01:18:08.315Z,80.75
2018-12-05T01:18:48.862Z,80.71
2018-12-05T01:19:29.451Z,81.04
2018-12-05T01:20:10.008Z,81.04
2018-12-05T01:20:50.555Z,80.14
2018-12-05T01:21:31.113Z,80.65
2018-12-05T01:22:11.662Z,80.08
2018-12-05T01:22:52.253Z,80.27
2018-12-05T01:23:32.800Z,80.24
2018-12-05T01:24:13.361Z,80.43
2018-12-05T01:24:53.958Z,80.62
2018-12-05T01:25:34.484Z,80.14
2018-12-05T01:26:15.063Z,80.24
2018-12-05T01:26:55.623Z,80.24
2018-12-05T01:27:36.182Z,80.62
2018-12-05T01:28:16.710Z,80.99
2018-12-05T01:28:57.271Z,80.24
2018-12-05T01:29:37.860Z,80.33
2018-12-05T01:30:18.363Z,80.62
2018-12-05T01:30:58.947Z,80.9
2018-12-05T01:31:39.575Z,80.99
2018-12-05T01:32:20.105Z,80.8
2018-12-05T01:33:00.672Z,80.99
2018-12-05T01:33:41.230Z,81.56
2018-12-05T01:34:21.801Z,81.47
2018-12-05T01:35:02.369Z,80.8
2018-12-05T01:35:42.975Z,80.9
2018-12-05T01:36:23.530Z,81.18
2018-12-05T01:37:04.068Z,80.99
2018-12-05T01:37:44.635Z,80.99
2018-12-05T01:38:25.181Z,81.09
2018-12-05T01:39:05.718Z,81.75
2018-12-05T01:39:46.286Z,81.27
2018-12-05T01:40:26.844Z,81.75
2018-12-05T01:41:07.381Z,82.13
2018-12-05T01:41:47.934Z,82.04
2018-12-05T01:42:28.488Z,81.66
2018-12-05T01:43:09.036Z,81.37
2018-12-05T01:43:49.584Z,81.47
2018-12-05T01:44:30.227Z,81.56
2018-12-05T01:45:10.789Z,81.66
2018-12-05T01:45:51.334Z,81.94
2018-12-05T01:46:31.909Z,82.23
2018-12-05T01:47:12.450Z,82.04
2018-12-05T01:47:53.016Z,81.94
2018-12-05T01:48:33.582Z,82.23
2018-12-05T01:49:14.122Z,81.56
2018-12-05T01:49:54.722Z,81.75
2018-12-05T01:50:35.244Z,81.18
2018-12-05T01:51:15.807Z,81.66
2018-12-05T01:51:56.371Z,81.66
2018-12-05T01:52:36.919Z,81.37
2018-12-05T01:53:17.550Z,81.47
2018-12-05T01:53:58.136Z,82.04
2018-12-05T01:54:38.686Z,82.04
2018-12-05T01:55:19.245Z,81.94
2018-12-05T01:55:59.797Z,82.23
2018-12-05T01:56:40.354Z,81.56
2018-12-05T01:57:20.908Z,82.23
2018-12-05T01:58:01.490Z,82.13
2018-12-05T01:58:42.091Z,82.04
2018-12-05T01:59:22.667Z,82.04
2018-12-05T02:00:03.227Z,82.23
2018-12-05T02:00:43.839Z,81.56
2018-12-05T02:01:24.454Z,81.66
2018-12-05T02:02:05.037Z,81.66
2018-12-05T02:02:45.629Z,81.56
2018-12-05T02:03:26.179Z,81.56
2018-12-05T02:04:06.744Z,81.37
2018-12-05T02:04:47.326Z,81.37
2018-12-05T02:05:27.883Z,81.18
2018-12-05T02:06:08.509Z,81.47
2018-12-05T02:06:49.076Z,81.18
2018-12-05T02:07:29.649Z,81.37
2018-12-05T02:08:10.195Z,81.47
2018-12-05T02:08:50.761Z,81.56
2018-12-05T02:09:31.324Z,81.66
2018-12-05T02:10:11.899Z,81.37
2018-12-05T02:10:52.457Z,81.94
2018-12-05T02:11:33.007Z,81.85
2018-12-05T02:12:13.571Z,82.32
2018-12-05T02:12:54.140Z,82.32
2018-12-05T02:13:34.704Z,82.04
2018-12-05T02:14:15.263Z,82.13
2018-12-05T02:14:55.877Z,82.04
2018-12-05T02:15:36.442Z,82.13
2018-12-05T02:16:17.041Z,81.94
2018-12-05T02:16:57.613Z,81.75
2018-12-05T02:17:38.158Z,81.47
2018-12-05T02:18:18.721Z,81.75
2018-12-05T02:18:59.268Z,81.47
2018-12-05T02:19:39.817Z,81.47
2018-12-05T02:20:20.376Z,81.37
2018-12-05T02:21:00.927Z,81.66
2018-12-05T02:21:41.480Z,81.66
2018-12-05T02:22:22.047Z,81.75
2018-12-05T02:23:02.607Z,81.27
2018-12-05T02:23:43.158Z,81.47
2018-12-05T02:24:23.719Z,81.18
2018-12-05T02:25:04.279Z,81.27
2018-12-05T02:25:44.848Z,81.75
2018-12-05T02:26:25.406Z,81.51
2018-12-05T02:27:05.957Z,81.56
2018-12-05T02:27:46.529Z,81.47
2018-12-05T02:28:27.105Z,81.56
2018-12-05T02:29:07.696Z,81.37
2018-12-05T02:29:48.258Z,81.47
2018-12-05T02:30:28.817Z,81.47
2018-12-05T02:31:09.610Z,81.18
2018-12-05T02:31:50.238Z,81.37
2018-12-05T02:32:30.800Z,81.47
2018-12-05T02:33:11.402Z,81.37
2018-12-05T02:33:51.971Z,81.37
2018-12-05T02:34:32.542Z,81.37
2018-12-05T02:35:13.117Z,81.47
2018-12-05T02:35:53.723Z,81.37
2018-12-05T02:36:34.285Z,81.37
2018-12-05T02:37:14.848Z,81.47
2018-12-05T02:37:55.583Z,81.27
2018-12-05T02:38:36.153Z,81.56
2018-12-05T02:39:16.710Z,81.85
2018-12-05T02:39:57.254Z,81.85
2018-12-05T02:40:37.809Z,81.66
2018-12-05T02:41:18.374Z,81.47
2018-12-05T02:41:59.006Z,81.27
2018-12-05T02:42:39.567Z,81.37
2018-12-05T02:43:20.124Z,81.75
2018-12-05T02:44:00.688Z,81.66
2018-12-05T02:44:41.275Z,81.37
2018-12-05T02:45:21.833Z,81.37
2018-12-05T02:46:02.389Z,81.47
2018-12-05T02:46:42.951Z,81.37
2018-12-05T02:47:23.528Z,81.56
2018-12-05T02:48:04.092Z,81.47
2018-12-05T02:48:44.677Z,81.56
2018-12-05T02:49:25.230Z,81.18
2018-12-05T02:50:05.793Z,81.27
2018-12-05T02:50:46.332Z,81.47
2018-12-05T02:51:26.907Z,81.66
2018-12-05T02:52:07.467Z,81.56
2018-12-05T02:52:48.036Z,81.75
2018-12-05T02:53:28.609Z,81.27
2018-12-05T02:54:09.156Z,81.37
2018-12-05T02:54:49.793Z,81.47
2018-12-05T02:55:30.354Z,81.37
2018-12-05T02:56:10.916Z,81.37
2018-12-05T02:56:51.488Z,81.37
2018-12-05T02:57:32.041Z,81.37
2018-12-05T02:58:12.606Z,81.56
2018-12-05T02:58:53.151Z,81.47
2018-12-05T02:59:33.710Z,81.47
2018-12-05T03:00:14.704Z,81.18
2018-12-05T03:00:55.267Z,81.56
2018-12-05T03:01:35.933Z,81.47
2018-12-05T03:02:16.482Z,81.56
2018-12-05T03:02:57.063Z,81.47
2018-12-05T03:03:37.663Z,81.18
2018-12-05T03:04:18.228Z,80.9
2018-12-05T03:04:58.783Z,81.09
2018-12-05T03:05:39.358Z,80.99
2018-12-05T03:06:19.922Z,80.8
2018-12-05T03:07:00.478Z,80.62
2018-12-05T03:07:41.053Z,80.99
2018-12-05T03:08:21.600Z,80.99
2018-12-05T03:09:02.159Z,81.66
2018-12-05T03:09:42.707Z,81.37
2018-12-05T03:10:23.278Z,81.56
2018-12-05T03:11:03.844Z,81.56
2018-12-05T03:11:44.418Z,81.66
2018-12-05T03:12:24.973Z,81.56
2018-12-05T03:13:05.532Z,81.27
2018-12-05T03:13:46.100Z,81.47
2018-12-05T03:14:26.700Z,81.47
2018-12-05T03:15:07.255Z,81.37
2018-12-05T03:15:47.808Z,81.37
2018-12-05T03:16:28.405Z,81.37
2018-12-05T03:17:08.971Z,81.56
2018-12-05T03:17:49.533Z,81.47
2018-12-05T03:18:30.085Z,81.75
2018-12-05T03:19:10.644Z,81.18
2018-12-05T03:19:51.209Z,81.47
2018-12-05T03:20:31.775Z,81.37
2018-12-05T03:21:12.320Z,81.75
2018-12-05T03:21:52.913Z,81.66
2018-12-05T03:22:33.495Z,82.04
2018-12-05T03:23:14.032Z,82.13
2018-12-05T03:23:54.598Z,82.13
2018-12-05T03:24:35.151Z,82.13
2018-12-05T03:25:15.727Z,82.04
2018-12-05T03:25:56.290Z,82.04
2018-12-05T03:26:36.844Z,81.94
2018-12-05T03:27:17.395Z,82.04
2018-12-05T03:27:57.949Z,82.23
2018-12-05T03:28:38.518Z,81.75
2018-12-05T03:29:19.079Z,82.04
2018-12-05T03:29:59.656Z,82.04
2018-12-05T03:30:40.216Z,82.04
2018-12-05T03:31:20.780Z,82.13
2018-12-05T03:32:01.372Z,82.04
2018-12-05T03:32:41.929Z,82.23
2018-12-05T03:33:22.471Z,82.23
2018-12-05T03:34:03.025Z,82.13
2018-12-05T03:34:43.575Z,82.04
2018-12-05T03:35:24.131Z,82.23
2018-12-05T03:36:04.705Z,82.32
2018-12-05T03:36:45.277Z,82.32
2018-12-05T03:37:25.841Z,82.51
2018-12-05T03:38:06.408Z,82.23
2018-12-05T03:38:46.963Z,82.32
2018-12-05T03:39:27.534Z,82.32
2018-12-05T03:40:08.101Z,82.13
2018-12-05T03:40:48.657Z,82.13
2018-12-05T03:41:29.248Z,81.94
2018-12-05T03:42:09.809Z,82.32
2018-12-05T03:42:50.367Z,82.23
2018-12-05T03:43:30.899Z,82.89
2018-12-05T03:44:11.467Z,82.79
2018-12-05T03:44:52.014Z,82.23
2018-12-05T03:45:32.559Z,82.32
2018-12-05T03:46:13.122Z,82.23
2018-12-05T03:46:53.688Z,82.79
2018-12-05T03:47:34.265Z,83.23
2018-12-05T03:48:14.825Z,83.08
2018-12-05T03:48:55.366Z,83.27
2018-12-05T03:49:35.925Z,83.17
2018-12-05T03:50:16.476Z,83.36
2018-12-05T03:50:57.046Z,83.32
2018-12-05T03:51:37.609Z,83.17
2018-12-05T03:52:18.254Z,83.17
2018-12-05T03:52:58.807Z,82.89
2018-12-05T03:53:39.395Z,82.98
2018-12-05T03:56:58.348Z,82.89
2018-12-05T03:57:38.896Z,82.94
2018-12-05T03:58:19.461Z,82.75
2018-12-05T03:59:00.006Z,83.08
2018-12-05T03:59:40.553Z,83.17
2018-12-05T04:00:21.106Z,82.98
2018-12-05T04:01:01.665Z,83.13
2018-12-05T04:01:42.218Z,83.08
2018-12-05T04:02:22.791Z,83.04
2018-12-05T04:03:03.328Z,82.85
2018-12-05T04:03:43.897Z,83.17
2018-12-05T04:04:24.458Z,83.17
2018-12-05T04:05:05.033Z,83.27
2018-12-05T04:05:45.584Z,83.04
2018-12-05T04:06:26.154Z,82.94
2018-12-05T04:07:06.704Z,83.27
2018-12-05T04:07:47.262Z,83.36
2018-12-05T04:08:27.817Z,83.46
2018-12-05T04:09:08.369Z,83.42
2018-12-05T04:09:48.928Z,82.94
2018-12-05T04:10:29.510Z,82.94
2018-12-05T04:11:10.068Z,82.94
2018-12-05T04:11:50.622Z,83.32
2018-12-05T04:12:31.219Z,83.32
2018-12-05T04:13:11.769Z,83.7
2018-12-05T04:13:52.317Z,83.23
2018-12-05T04:14:32.883Z,83.51
2018-12-05T04:15:13.463Z,83.51
2018-12-05T04:15:54.018Z,83.51
2018-12-05T04:16:34.580Z,83.74
2018-12-05T04:17:15.143Z,83.74
2018-12-05T04:17:55.715Z,83.7
2018-12-05T04:18:36.271Z,83.42
2018-12-05T04:19:16.825Z,83.89
2018-12-05T04:19:57.375Z,84.27
2018-12-05T04:20:37.939Z,83.98
2018-12-05T04:21:18.494Z,84.17
2018-12-05T04:21:59.040Z,83.89
2018-12-05T04:22:39.599Z,83.98
2018-12-05T04:23:20.168Z,84.17
2018-12-05T04:24:00.739Z,83.7
2018-12-05T04:24:41.310Z,83.98
2018-12-05T04:25:21.864Z,83.42
2018-12-05T04:26:02.425Z,83.42
2018-12-05T04:26:42.985Z,83.51
2018-12-05T04:27:23.573Z,83.7
2018-12-05T04:28:04.153Z,83.7
2018-12-05T04:28:44.711Z,83.42
2018-12-05T04:29:25.278Z,83.51
2018-12-05T04:30:05.836Z,83.23
2018-12-05T04:30:46.387Z,83.42
2018-12-05T04:31:26.937Z,83.61
2018-12-05T04:32:07.563Z,83.89
2018-12-05T04:32:48.111Z,83.42
2018-12-05T04:33:28.679Z,83.8
2018-12-05T04:34:09.245Z,83.8
2018-12-05T04:34:49.790Z,83.61
2018-12-05T04:35:30.355Z,83.7
2018-12-05T04:36:10.913Z,84.27
2018-12-05T04:36:51.476Z,84.27
2018-12-05T04:37:32.051Z,84.27
2018-12-05T04:38:12.619Z,84.46
2018-12-05T04:38:53.179Z,83.7
2018-12-05T04:39:33.748Z,83.51
2018-12-05T04:40:14.299Z,83.42
2018-12-05T04:40:54.850Z,84.08
2018-12-05T04:41:35.408Z,83.89
2018-12-05T04:42:15.960Z,83.98
2018-12-05T04:42:56.519Z,83.8
2018-12-05T04:43:37.089Z,83.89
2018-12-05T04:44:17.629Z,83.7
2018-12-05T04:44:58.190Z,84.17
2018-12-05T04:45:38.739Z,83.89
2018-12-05T04:46:19.343Z,83.98
2018-12-05T04:46:59.912Z,83.7
2018-12-05T04:47:40.473Z,83.89
2018-12-05T04:48:21.030Z,84.27
2018-12-05T04:49:01.565Z,83.98
2018-12-05T04:49:42.148Z,83.98
2018-12-05T04:50:22.701Z,84.08
2018-12-05T04:51:03.259Z,83.98
2018-12-05T04:51:43.797Z,84.08
2018-12-05T04:52:24.405Z,84.08
2018-12-05T04:53:04.964Z,84.17
2018-12-05T04:53:45.539Z,84.17
2018-12-05T04:54:26.083Z,83.98
2018-12-05T04:55:06.654Z,84.08
2018-12-05T04:55:47.205Z,84.27
2018-12-05T04:56:27.805Z,84.46
2018-12-05T04:57:08.352Z,84.36
2018-12-05T04:57:48.918Z,84.36
2018-12-05T04:58:29.475Z,84.65
2018-12-05T04:59:10.029Z,84.84
2018-12-05T04:59:50.597Z,84.94
2018-12-05T05:00:31.315Z,84.74
2018-12-05T05:01:11.870Z,84.55
2018-12-05T05:01:52.450Z,84.94
2018-12-05T05:02:33.017Z,84.74
2018-12-05T05:03:13.563Z,84.65
2018-12-05T05:03:54.110Z,84.46
2018-12-05T05:04:34.661Z,84.74
2018-12-05T05:05:15.229Z,84.94
2018-12-05T05:05:55.769Z,84.94
2018-12-05T05:06:41.536Z,84.46
2018-12-05T05:07:16.890Z,84.74
2018-12-05T05:07:57.460Z,84.65
2018-12-05T05:08:38.011Z,84.74
2018-12-05T05:09:18.624Z,84.94
2018-12-05T05:09:59.176Z,84.84
2018-12-05T05:10:39.746Z,84.84
2018-12-05T05:11:20.299Z,84.94
2018-12-05T05:12:00.848Z,84.94
2018-12-05T05:12:41.402Z,84.74
2018-12-05T05:13:21.953Z,84.65
2018-12-05T05:14:02.510Z,84.74
2018-12-05T05:14:43.077Z,85.03
2018-12-05T05:15:23.615Z,85.03
2018-12-05T05:16:04.172Z,84.94
2018-12-05T05:16:44.727Z,84.74
2018-12-05T05:17:25.289Z,84.94
2018-12-05T05:18:05.841Z,84.94
2018-12-05T05:18:46.397Z,84.74
2018-12-05T05:19:26.957Z,85.41
2018-12-05T05:20:07.509Z,85.13
2018-12-05T05:20:48.074Z,85.03
2018-12-05T05:21:28.645Z,84.94
2018-12-05T05:22:09.195Z,85.41
2018-12-05T05:22:49.755Z,85.22
2018-12-05T05:23:30.315Z,85.03
2018-12-05T05:24:10.878Z,85.03
2018-12-05T05:24:51.437Z,85.13
2018-12-05T05:25:32.021Z,85.03
2018-12-05T05:26:12.591Z,85.41
2018-12-05T05:26:53.153Z,85.41
2018-12-05T05:27:33.712Z,85.5
2018-12-05T05:28:14.310Z,85.41
2018-12-05T05:28:54.881Z,85.31
2018-12-05T05:29:35.436Z,85.5
2018-12-05T05:30:16.058Z,85.41
2018-12-05T05:30:56.705Z,85.13
2018-12-05T05:31:37.263Z,85.13
2018-12-05T05:32:17.795Z,85.13
2018-12-05T05:32:58.346Z,85.03
2018-12-05T05:33:38.904Z,85.41
2018-12-05T05:34:19.452Z,85.97
2018-12-05T05:35:00.025Z,85.88
2018-12-05T05:35:40.605Z,85.97
2018-12-05T05:36:21.181Z,85.97
2018-12-05T05:37:01.745Z,85.97
2018-12-05T05:37:42.292Z,85.78
2018-12-05T05:38:22.868Z,85.78
2018-12-05T05:39:03.444Z,85.6
2018-12-05T05:39:43.980Z,85.97
2018-12-05T05:40:24.530Z,85.13
2018-12-05T05:41:05.083Z,85.31
2018-12-05T05:41:45.669Z,85.03
2018-12-05T05:42:26.220Z,85.31
2018-12-05T05:43:06.804Z,85.41
2018-12-05T05:43:47.452Z,85.41
2018-12-05T05:44:28.030Z,85.78
2018-12-05T05:45:08.600Z,85.69
2018-12-05T05:45:49.168Z,85.97
2018-12-05T05:46:29.752Z,85.97
2018-12-05T05:47:10.315Z,85.88
2018-12-05T05:47:50.870Z,85.97
2018-12-05T05:48:31.426Z,85.97
2018-12-05T05:49:11.976Z,85.97
2018-12-05T05:49:52.611Z,85.97
2018-12-05T05:50:33.134Z,85.88
2018-12-05T05:51:13.652Z,85.97
2018-12-05T05:51:54.229Z,85.88
2018-12-05T05:52:34.791Z,85.97
2018-12-05T05:53:15.322Z,85.13
2018-12-05T05:53:55.880Z,85.22
2018-12-05T05:54:36.444Z,85.5
2018-12-05T05:55:17.013Z,85.03
2018-12-05T05:55:57.557Z,85.41
2018-12-05T05:56:38.115Z,85.97
2018-12-05T05:57:18.675Z,85.88
2018-12-05T05:57:59.232Z,85.88
2018-12-05T05:58:39.785Z,85.88
2018-12-05T05:59:20.328Z,86.07
2018-12-05T06:00:00.912Z,85.13
2018-12-05T06:00:41.478Z,85.5
2018-12-05T06:01:22.067Z,85.03
2018-12-05T06:02:02.614Z,85.31
2018-12-05T06:02:43.170Z,85.31
2018-12-05T06:03:23.716Z,85.03
2018-12-05T06:04:04.299Z,85.31
2018-12-05T06:04:44.857Z,85.22
2018-12-05T06:05:25.396Z,85.22
2018-12-05T06:06:05.950Z,85.13
2018-12-05T06:06:46.521Z,85.31
2018-12-05T06:07:27.093Z,85.31
2018-12-05T06:08:07.653Z,85.22
2018-12-05T06:08:48.210Z,85.31
2018-12-05T06:09:28.802Z,85.22
2018-12-05T06:10:09.373Z,85.22
2018-12-05T06:10:49.925Z,84.74
2018-12-05T06:11:30.477Z,84.94
2018-12-05T06:12:11.027Z,85.31
2018-12-05T06:12:51.597Z,85.41
2018-12-05T06:13:32.205Z,85.31
2018-12-05T06:14:12.795Z,85.13
2018-12-05T06:14:53.371Z,85.22
2018-12-05T06:15:33.946Z,85.22
2018-12-05T06:16:14.530Z,85.31
2018-12-05T06:16:55.083Z,85.31
2018-12-05T06:17:35.636Z,85.41
2018-12-05T06:18:16.207Z,85.41
2018-12-05T06:18:56.771Z,85.5
2018-12-05T06:19:37.320Z,85.41
2018-12-05T06:20:17.891Z,85.31
2018-12-05T06:20:58.442Z,85.6
2018-12-05T06:21:39.041Z,84.84
2018-12-05T06:22:19.686Z,84.94
2018-12-05T06:23:00.258Z,84.55
2018-12-05T06:23:40.830Z,84.94
2018-12-05T06:24:21.397Z,84.84
2018-12-05T06:25:01.943Z,85.13
2018-12-05T06:25:42.490Z,85.22
2018-12-05T06:26:23.082Z,85.22
2018-12-05T06:27:03.644Z,85.31
2018-12-05T06:27:44.200Z,85.13
2018-12-05T06:28:24.762Z,84.74
2018-12-05T06:29:05.396Z,84.94
2018-12-05T06:29:45.961Z,85.31
2018-12-05T06:30:26.517Z,85.41
2018-12-05T06:31:07.067Z,85.41
2018-12-05T06:31:47.620Z,85.41
2018-12-05T06:32:28.174Z,85.5
2018-12-05T06:33:08.801Z,85.88
2018-12-05T06:33:49.355Z,85.78
2018-12-05T06:34:29.910Z,85.6
2018-12-05T06:35:10.468Z,85.6
2018-12-05T06:35:51.069Z,85.78
2018-12-05T06:36:31.642Z,85.97
2018-12-05T06:37:12.208Z,85.97
2018-12-05T06:37:52.765Z,86.83
2018-12-05T06:38:33.321Z,89.29
2018-12-05T06:39:13.879Z,92.9
2018-12-05T06:39:54.444Z,95.5
2018-12-05T06:40:35.019Z,97.21
2018-12-05T06:41:15.584Z,97.92
2018-12-05T06:41:56.149Z,97.17
2018-12-05T06:42:36.699Z,96.22
2018-12-05T06:43:17.302Z,95.12
2018-12-05T06:43:57.859Z,94.46
2018-12-05T06:44:38.423Z,93.23
2018-12-05T06:45:19.161Z,90.66
2018-12-05T06:45:59.757Z,88.62
2018-12-05T06:46:40.313Z,87.38
2018-12-05T06:47:20.871Z,85.86
2018-12-05T06:48:01.472Z,83.59
2018-12-05T06:48:42.019Z,82.64
2018-12-05T06:49:22.629Z,81.59
2018-12-05T06:50:03.165Z,81.12
2018-12-05T06:50:43.822Z,81.02
2018-12-05T06:51:24.357Z,81.49
2018-12-05T06:52:04.908Z,81.35
2018-12-05T06:52:45.469Z,81.54
2018-12-05T06:53:26.034Z,80.96
2018-12-05T06:54:06.596Z,78.4
2018-12-05T06:54:47.178Z,75.99
2018-12-05T06:55:27.735Z,75.13
2018-12-05T06:56:08.283Z,74.75
2018-12-05T06:56:48.837Z,74.08
2018-12-05T06:57:29.392Z,74.15
2018-12-05T06:58:09.940Z,74.05
2018-12-05T06:58:50.507Z,74.52
2018-12-05T06:59:31.058Z,75.38
2018-12-05T07:00:11.620Z,75.38
2018-12-05T07:00:52.184Z,76.04
2018-12-05T07:01:32.742Z,75.91
2018-12-05T07:02:13.311Z,76.67
2018-12-05T07:02:53.870Z,77.05
2018-12-05T07:03:34.447Z,77.71
2018-12-05T07:04:15.004Z,77.9
2018-12-05T07:04:55.610Z,78.19
2018-12-05T07:05:36.155Z,78.72
2018-12-05T07:06:16.721Z,78.62
2018-12-05T07:06:57.282Z,78.62
2018-12-05T07:07:37.837Z,79.28
2018-12-05T07:08:18.399Z,79.28
2018-12-05T07:08:58.967Z,79.76
2018-12-05T07:09:39.620Z,80.24
2018-12-05T07:10:20.211Z,80.24
2018-12-05T07:11:00.797Z,80.33
2018-12-05T07:11:41.369Z,80.9
2018-12-05T07:12:21.943Z,80.9
2018-12-05T07:13:02.518Z,81.47
2018-12-05T07:13:43.090Z,81.56
2018-12-05T07:14:23.635Z,81.47
2018-12-05T07:15:04.189Z,81.75
2018-12-05T07:15:44.805Z,81.66
2018-12-05T07:16:25.373Z,82.32
2018-12-05T07:17:05.976Z,81.94
2018-12-05T07:17:46.542Z,82.23
2018-12-05T07:18:27.243Z,82.23
2018-12-05T07:19:07.798Z,82.32
2018-12-05T07:19:48.362Z,82.7
2018-12-05T07:20:28.930Z,82.51
2018-12-05T07:21:09.493Z,82.04
2018-12-05T07:21:50.052Z,82.75
2018-12-05T07:22:30.610Z,82.42
2018-12-05T07:23:11.166Z,81.81
2018-12-05T07:23:51.723Z,82.47
2018-12-05T07:24:32.323Z,82.47
2018-12-05T07:25:13.385Z,82.37
2018-12-05T07:25:53.944Z,82.94
2018-12-05T07:26:34.512Z,82.85
2018-12-05T07:27:15.074Z,82.94
2018-12-05T07:27:55.630Z,83.23
2018-12-05T07:28:36.193Z,83.32
2018-12-05T07:29:16.896Z,82.94
2018-12-05T07:29:57.377Z,83.13
2018-12-05T07:30:37.928Z,83.13
2018-12-05T07:31:18.513Z,83.32
2018-12-05T07:31:59.053Z,83.23
2018-12-05T07:32:39.625Z,83.13
2018-12-05T07:33:20.185Z,83.23
2018-12-05T07:34:00.735Z,83.23
2018-12-05T07:34:41.293Z,83.32
2018-12-05T07:35:21.854Z,83.42
2018-12-05T07:36:02.433Z,83.89
2018-12-05T07:36:42.977Z,83.7
2018-12-05T07:37:23.553Z,83.42
2018-12-05T07:38:04.104Z,83.98
2018-12-05T07:38:44.663Z,83.98
2018-12-05T07:39:25.225Z,84.55
2018-12-05T07:40:05.784Z,84.08
2018-12-05T07:40:46.378Z,84.17
2018-12-05T07:41:26.964Z,84.17
2018-12-05T07:42:07.538Z,84.36
2018-12-05T07:42:48.093Z,84.08
2018-12-05T07:43:28.642Z,84.84
2018-12-05T07:44:09.211Z,84.46
2018-12-05T07:44:49.761Z,84.46
2018-12-05T07:45:30.312Z,84.94
2018-12-05T07:46:11.022Z,84.65
2018-12-05T07:46:51.483Z,84.65
2018-12-05T07:47:32.037Z,84.65
2018-12-05T07:48:12.655Z,84.65
2018-12-05T07:48:53.217Z,84.46
2018-12-05T07:49:33.771Z,84.74
2018-12-05T07:50:15.855Z,84.94
2018-12-05T07:50:54.902Z,84.65
2018-12-05T07:51:35.476Z,84.94
2018-12-05T07:52:16.023Z,84.74
2018-12-05T07:52:56.580Z,84.94
2018-12-05T07:53:37.136Z,84.46
2018-12-05T07:54:17.724Z,84.65
2018-12-05T07:54:58.304Z,84.74
2018-12-05T07:55:38.863Z,84.65
2018-12-05T07:56:19.422Z,84.74
2018-12-05T07:56:59.988Z,84.65
2018-12-05T07:57:40.577Z,84.65
2018-12-05T07:58:21.157Z,84.74
2018-12-05T07:59:01.721Z,84.94
2018-12-05T07:59:42.298Z,85.03
2018-12-05T08:00:23.117Z,84.74
2018-12-05T08:01:03.701Z,84.84
2018-12-05T08:01:44.449Z,85.31
2018-12-05T08:02:25.154Z,85.5
2018-12-05T08:03:05.718Z,85.6
2018-12-05T08:03:46.270Z,85.22
2018-12-05T08:04:26.853Z,85.41
2018-12-05T08:05:07.425Z,85.41
2018-12-05T08:05:47.994Z,84.84
2018-12-05T08:06:28.575Z,84.94
2018-12-05T08:07:09.121Z,84.65
2018-12-05T08:07:49.675Z,84.94
2018-12-05T08:08:30.240Z,84.84
2018-12-05T08:09:10.782Z,84.74
2018-12-05T08:09:51.384Z,84.74
2018-12-05T08:10:31.938Z,84.65
2018-12-05T08:11:12.508Z,84.74
2018-12-05T08:11:53.118Z,84.46
2018-12-05T08:12:33.668Z,84.94
2018-12-05T08:13:14.222Z,84.65
2018-12-05T08:13:54.779Z,84.65
2018-12-05T08:14:35.332Z,84.65
2018-12-05T08:15:15.894Z,84.84
2018-12-05T08:15:56.467Z,84.65
2018-12-05T08:16:37.028Z,84.94
2018-12-05T08:17:17.583Z,84.46
2018-12-05T08:17:58.137Z,84.17
2018-12-05T08:18:38.692Z,84.46
2018-12-05T08:19:19.251Z,84.36
2018-12-05T08:19:59.826Z,84.46
2018-12-05T08:20:40.383Z,84.65
2018-12-05T08:21:20.940Z,84.27
2018-12-05T08:22:01.513Z,84.46
2018-12-05T08:22:42.062Z,84.65
2018-12-05T08:23:22.627Z,84.65
2018-12-05T08:24:03.211Z,84.65
2018-12-05T08:24:43.765Z,84.84
2018-12-05T08:25:24.321Z,84.65
2018-12-05T08:26:04.870Z,84.55
2018-12-05T08:26:45.418Z,86.45
2018-12-05T08:27:25.995Z,89.06
2018-12-05T08:28:06.556Z,91.24
2018-12-05T08:28:47.127Z,90.95
2018-12-05T08:29:27.686Z,91.42
2018-12-05T08:30:08.251Z,91.28
2018-12-05T08:30:48.816Z,91.56
2018-12-05T08:31:29.373Z,90.05
2018-12-05T08:32:09.969Z,87.24
2018-12-05T08:32:50.506Z,85.63
2018-12-05T08:33:31.073Z,83.54
2018-12-05T08:34:11.636Z,82.74
2018-12-05T08:34:52.190Z,81.55
2018-12-05T08:35:32.746Z,80.08
2018-12-05T08:36:13.306Z,80.18
2018-12-05T08:36:53.903Z,79.99
2018-12-05T08:37:34.479Z,79.9
2018-12-05T08:38:15.074Z,79.99
2018-12-05T08:38:55.625Z,80.37
2018-12-05T08:39:36.177Z,80.37
2018-12-05T08:40:16.723Z,80.65
2018-12-05T08:40:57.386Z,80.37
2018-12-05T08:41:37.929Z,80.08
2018-12-05T08:42:18.479Z,79.17
2018-12-05T08:42:59.026Z,79.46
2018-12-05T08:43:39.595Z,79.27
2018-12-05T08:44:20.158Z,78.51
2018-12-05T08:45:00.729Z,78.61
2018-12-05T08:45:41.277Z,78.8
2018-12-05T08:46:21.867Z,78.99
2018-12-05T08:47:02.423Z,78.36
2018-12-05T08:47:42.991Z,78.27
2018-12-05T08:48:23.564Z,77.03
2018-12-05T08:49:04.125Z,76.46